Budapest Lorinc, Hungary

5:37 PM CET on February 10, 2016 (GMT +0100)
Budapest | | Change Station
CLOSE
Current Station
Personal Weather Station
Location: Budapest, BUDAPEST
Elevation: 417 ft
Nearby Weather Stations

Elev 417 ft 47.42 °N, 19.21 °E | Updated 6 minutes ago

Mostly Cloudy
Mostly Cloudy
39.9 °F
Feels Like 36 °F
N
6.0
Wind Variable Wind from ENE
Gusts 10.7 mph

Today
High -- | Low -- °F
--% Chance of Precip.
Yesterday
High -- | Low -- °F
Precip. -- in
Pressure 29.30 in
Visibility 6.2 miles
Clouds Mostly Cloudy 1900 ft
Windchill 36 °F
Dew Point 32 °F
Humidity 73%
Rainfall 0.69 in
Snow Depth Not available.
6:57 AM 4:57 PM
Waxing Crescent, 6% visible
METAR LHBP 101630Z 28024G36KT 9999 BKN019 04/01 Q0992 NOSIG
Pressure 29.30 in
Visibility 6.2 miles
Clouds Mostly Cloudy 1900 ft
Windchill 36 °F
Dew Point 32 °F
Humidity 73%
Rainfall 0.69 in
Snow Depth Not available.
6:57 AM 4:57 PM
Waxing Crescent, 6% visible
METAR LHBP 101630Z 28024G36KT 9999 BKN019 04/01 Q0992 NOSIG

10-Day Weather Forecast

Almanac

Astronomy

Feb. 10, 2016 Rise Set
Actual Time
Civil Twilight
Nautical Twilight
Astronomical Twilight
Moon
Length of Visible Light
Length of Day
Tomorrow will be .
, % of the Moon is Illuminated

Today's Extremes

Country Highs Country Lows

Community

WunderPhotos

Upload Photos

1,891,881 photos uploaded!

WunderBlog® & News

Nearby

Air Quality

  Air Quality AQ Index Pollutant
Not available.

Snow Depth

Station Depth Elevation

Earthquake Activity

City Distance Mag. Time & Date
Minimum magnitude displayed is 2.5.

Coastal Water Temperatures

Place Temperature

Stations

Nearby Weather Stations

Station Location Temp. Windchill Dew Point Humidity Wind Precip. Elev Updated Type